Reston, Canada
Current Conditions -  °F | °C
As of 9:00 PM on Tuesday 21 Oct 2014 (Local Time) from CYBR Reporting Station
Clear Clear  
Wind Chill: 57°   Ceiling: Unl
Heat Index: 57°   Visibility: 15mi
Dew Point: 43°   Wind: 13mph
Humidity: 59%   Direction: 110°ESE
Pressure: 29.68"   Gusts: NA
Location:  49.55°N, 101.08°W
Report Text: CYBR 220200Z 11011KT 15SM SKC 14/06 A2968 RMK SLP060 DENSITY ALT 1700FT
Loading
Personal Weather Stations






























Interactive Weather Map
Tropical Storm Tracking
New forecast layout! Learn more

10-Day Weather Forecast

Advertisements
Track Severe Weather on mobile